createdAt,value
2023-01-28T00:00:56.877Z,1022.64
2023-01-28T00:01:56.855Z,1022.65
2023-01-28T00:02:56.882Z,1022.67
2023-01-28T00:03:56.905Z,1022.65
2023-01-28T00:04:56.766Z,1022.68
2023-01-28T00:05:56.737Z,1022.69
2023-01-28T00:06:56.707Z,1022.72
2023-01-28T00:07:56.679Z,1022.77
2023-01-28T00:08:56.651Z,1022.78
2023-01-28T00:09:56.623Z,1022.82
2023-01-28T00:10:56.597Z,1022.84
2023-01-28T00:11:56.566Z,1022.80
2023-01-28T00:12:56.534Z,1022.85
2023-01-28T00:13:56.505Z,1022.83
2023-01-28T00:14:56.483Z,1022.87
2023-01-28T00:15:56.524Z,1022.83
2023-01-28T00:16:56.428Z,1022.86
2023-01-28T00:17:56.401Z,1022.86
2023-01-28T00:18:56.372Z,1022.86
2023-01-28T00:19:56.357Z,1022.80
2023-01-28T00:20:56.304Z,1022.81
2023-01-28T00:21:56.279Z,1022.79
2023-01-28T00:22:56.255Z,1022.82
2023-01-28T00:23:56.290Z,1022.81
2023-01-28T00:24:56.198Z,1022.80
2023-01-28T00:25:56.163Z,1022.79
2023-01-28T00:26:56.140Z,1022.74
2023-01-28T00:27:56.136Z,1022.73
2023-01-28T00:28:56.087Z,1022.72
2023-01-28T00:29:56.054Z,1022.73
2023-01-28T00:30:56.106Z,1022.76
2023-01-28T00:31:56.069Z,1022.73
2023-01-28T00:32:55.958Z,1022.80
2023-01-28T00:33:55.940Z,1022.74
2023-01-28T00:34:55.916Z,1022.71
2023-01-28T00:35:55.916Z,1022.76
2023-01-28T00:36:55.854Z,1022.76
2023-01-28T00:37:55.833Z,1022.70
2023-01-28T00:38:55.795Z,1022.72
2023-01-28T00:39:55.772Z,1022.76
2023-01-28T00:40:55.758Z,1022.78
2023-01-28T00:41:55.721Z,1022.81
2023-01-28T00:42:55.685Z,1022.80
2023-01-28T00:43:55.660Z,1022.84
2023-01-28T00:44:55.625Z,1022.86
2023-01-28T00:45:55.613Z,1022.89
2023-01-28T00:46:55.583Z,1022.87
2023-01-28T00:47:55.551Z,1022.90
2023-01-28T00:48:55.513Z,1022.84
2023-01-28T00:49:55.488Z,1022.85
2023-01-28T00:50:55.458Z,1022.86
2023-01-28T00:51:55.474Z,1022.88
2023-01-28T00:52:55.400Z,1022.85
2023-01-28T00:53:55.374Z,1022.88
2023-01-28T00:54:55.344Z,1022.83
2023-01-28T00:55:55.321Z,1022.84
2023-01-28T00:56:55.290Z,1022.84
2023-01-28T00:57:55.264Z,1022.85
2023-01-28T00:58:55.235Z,1022.83
2023-01-28T00:59:55.205Z,1022.83
2023-01-28T01:00:55.174Z,1022.85
2023-01-28T01:01:55.149Z,1022.81
2023-01-28T01:02:55.150Z,1022.77
2023-01-28T01:03:55.088Z,1022.80
2023-01-28T01:04:55.306Z,1022.81
2023-01-28T01:05:55.027Z,1022.80
2023-01-28T01:06:55.014Z,1022.82
2023-01-28T01:07:54.994Z,1022.81
2023-01-28T01:08:54.953Z,1022.81
2023-01-28T01:09:54.919Z,1022.83
2023-01-28T01:10:54.891Z,1022.85
2023-01-28T01:11:54.865Z,1022.91
2023-01-28T01:12:54.830Z,1022.93
2023-01-28T01:13:54.808Z,1022.95
2023-01-28T01:14:54.779Z,1022.99
2023-01-28T01:15:54.849Z,1023.04
2023-01-28T01:16:54.717Z,1023.06
2023-01-28T01:17:54.701Z,1023.01
2023-01-28T01:18:54.666Z,1023.03
2023-01-28T01:19:54.630Z,1022.99
2023-01-28T01:20:54.607Z,1022.99
2023-01-28T01:21:54.588Z,1022.97
2023-01-28T01:22:54.553Z,1022.91
2023-01-28T01:23:54.673Z,1022.92
2023-01-28T01:24:54.493Z,1022.94
2023-01-28T01:25:54.461Z,1022.91
2023-01-28T01:26:54.440Z,1022.95
2023-01-28T01:27:54.415Z,1022.96
2023-01-28T01:28:54.380Z,1022.99
2023-01-28T01:29:54.351Z,1022.98
2023-01-28T01:30:54.337Z,1022.98
2023-01-28T01:31:54.363Z,1022.98
2023-01-28T01:32:54.267Z,1022.97
2023-01-28T01:33:54.261Z,1023.00
2023-01-28T01:34:54.209Z,1023.02
2023-01-28T01:35:54.177Z,1023.00
2023-01-28T01:36:54.149Z,1022.98
2023-01-28T01:37:54.126Z,1023.00
2023-01-28T01:38:54.103Z,1023.01
2023-01-28T01:39:54.084Z,1023.02
2023-01-28T01:40:54.040Z,1023.00
2023-01-28T01:41:54.006Z,1023.04
2023-01-28T01:42:53.984Z,1023.03
2023-01-28T01:43:53.951Z,1023.04
2023-01-28T01:44:53.927Z,1023.07
2023-01-28T01:45:53.932Z,1023.06
2023-01-28T01:46:53.883Z,1023.06
2023-01-28T01:47:53.840Z,1023.08
2023-01-28T01:48:53.811Z,1023.07
2023-01-28T01:49:53.781Z,1023.07
2023-01-28T01:50:53.756Z,1023.07
2023-01-28T01:51:53.722Z,1023.08
2023-01-28T01:52:53.698Z,1023.05
2023-01-28T01:53:53.665Z,1023.03
2023-01-28T01:54:53.646Z,1023.08
2023-01-28T01:55:53.631Z,1023.10
2023-01-28T01:56:53.597Z,1023.11
2023-01-28T01:57:53.549Z,1023.08
2023-01-28T01:58:53.523Z,1023.10
2023-01-28T01:59:53.496Z,1023.12
2023-01-28T02:00:53.474Z,1023.10
2023-01-28T02:01:53.518Z,1023.11
2023-01-28T02:02:53.438Z,1023.10
2023-01-28T02:03:53.388Z,1023.08
2023-01-28T02:04:53.354Z,1023.11
2023-01-28T02:05:53.327Z,1023.07
2023-01-28T02:06:53.363Z,1023.10
2023-01-28T02:07:53.272Z,1023.04
2023-01-28T02:08:53.246Z,1023.05
2023-01-28T02:09:53.214Z,1023.03
2023-01-28T02:10:53.185Z,1023.03
2023-01-28T02:11:53.182Z,1023.06
2023-01-28T02:12:53.128Z,1023.09
2023-01-28T02:13:53.333Z,1023.13
2023-01-28T02:14:53.074Z,1023.17
2023-01-28T02:15:53.044Z,1023.17
2023-01-28T02:16:53.031Z,1023.19
2023-01-28T02:17:53.000Z,1023.19
2023-01-28T02:18:52.963Z,1023.17
2023-01-28T02:19:52.925Z,1023.16
2023-01-28T02:20:52.897Z,1023.15
2023-01-28T02:21:52.871Z,1023.13
2023-01-28T02:22:52.846Z,1023.09
2023-01-28T02:23:52.907Z,1023.08
2023-01-28T02:24:52.791Z,1023.06
2023-01-28T02:25:52.764Z,1023.07
2023-01-28T02:26:52.742Z,1023.07
2023-01-28T02:27:52.720Z,1023.09
2023-01-28T02:28:52.668Z,1023.06
2023-01-28T02:29:52.654Z,1023.08
2023-01-28T02:30:52.784Z,1023.08
2023-01-28T02:31:52.757Z,1023.12
2023-01-28T02:32:52.558Z,1023.13
2023-01-28T02:33:52.529Z,1023.12
2023-01-28T02:34:52.515Z,1023.15
2023-01-28T02:35:52.473Z,1023.15
2023-01-28T02:36:52.452Z,1023.16
2023-01-28T02:37:52.414Z,1023.13
2023-01-28T02:38:52.384Z,1023.11
2023-01-28T02:39:52.355Z,1023.10
2023-01-28T02:40:52.326Z,1023.08
2023-01-28T02:41:52.297Z,1023.06
2023-01-28T02:42:52.274Z,1023.08
2023-01-28T02:43:52.261Z,1023.09
2023-01-28T02:44:52.217Z,1023.05
2023-01-28T02:45:52.254Z,1023.05
2023-01-28T02:46:52.162Z,1023.02
2023-01-28T02:47:52.132Z,1023.02
2023-01-28T02:48:52.104Z,1022.98
2023-01-28T02:49:52.071Z,1022.98
2023-01-28T02:50:52.043Z,1022.99
2023-01-28T02:51:52.028Z,1023.03
2023-01-28T02:52:51.993Z,1023.01
2023-01-28T02:53:51.960Z,1023.04
2023-01-28T02:54:51.931Z,1023.05
2023-01-28T02:55:51.905Z,1023.00
2023-01-28T02:56:51.876Z,1023.05
2023-01-28T02:57:51.845Z,1023.06
2023-01-28T02:58:51.831Z,1023.09
2023-01-28T02:59:51.808Z,1023.06
2023-01-28T03:00:51.779Z,1023.07
2023-01-28T03:01:51.822Z,1023.09
2023-01-28T03:02:51.740Z,1023.08
2023-01-28T03:03:51.679Z,1023.05
2023-01-28T03:04:51.658Z,1023.03
2023-01-28T03:05:51.617Z,1023.02
2023-01-28T03:06:51.591Z,1023.00
2023-01-28T03:07:51.562Z,1022.98
2023-01-28T03:08:51.551Z,1022.96
2023-01-28T03:09:51.515Z,1022.96
2023-01-28T03:10:51.494Z,1022.99
2023-01-28T03:11:51.449Z,1023.00
2023-01-28T03:12:51.420Z,1023.04
2023-01-28T03:13:51.389Z,1023.01
2023-01-28T03:14:51.373Z,1023.00
2023-01-28T03:15:51.410Z,1023.03
2023-01-28T03:16:51.306Z,1022.99
2023-01-28T03:17:51.275Z,1022.98
2023-01-28T03:18:51.252Z,1022.96
2023-01-28T03:19:51.219Z,1022.98
2023-01-28T03:20:51.204Z,1022.99
2023-01-28T03:21:51.164Z,1023.00
2023-01-28T03:22:51.140Z,1023.00
2023-01-28T03:23:51.139Z,1023.00
2023-01-28T03:24:51.084Z,1022.98
2023-01-28T03:25:51.052Z,1022.96
2023-01-28T03:26:51.030Z,1023.00
2023-01-28T03:27:50.996Z,1023.01
2023-01-28T03:28:50.975Z,1023.00
2023-01-28T03:29:50.934Z,1022.99
2023-01-28T03:30:50.984Z,1023.00
2023-01-28T03:31:50.934Z,1023.02
2023-01-28T03:32:50.869Z,1023.09
2023-01-28T03:33:50.830Z,1023.09
2023-01-28T03:34:50.797Z,1023.09
2023-01-28T03:35:50.772Z,1023.10
2023-01-28T03:36:50.755Z,1023.12
2023-01-28T03:37:50.710Z,1023.09
2023-01-28T03:38:50.689Z,1023.06
2023-01-28T03:39:50.659Z,1023.07
2023-01-28T03:40:50.626Z,1023.07
2023-01-28T03:41:50.599Z,1023.05
2023-01-28T03:42:50.569Z,1023.07
2023-01-28T03:43:50.542Z,1023.05
2023-01-28T03:44:50.516Z,1023.02
2023-01-28T03:45:50.487Z,1023.01
2023-01-28T03:46:50.462Z,1023.00
2023-01-28T03:47:50.450Z,1023.05
2023-01-28T03:48:50.406Z,1023.13
2023-01-28T03:49:50.370Z,1023.08
2023-01-28T03:50:50.356Z,1023.10
2023-01-28T03:51:50.318Z,1023.11
2023-01-28T03:52:50.297Z,1023.09
2023-01-28T03:53:50.256Z,1023.13
2023-01-28T03:54:50.234Z,1023.15
2023-01-28T03:55:50.205Z,1023.13
2023-01-28T03:56:50.173Z,1023.14
2023-01-28T03:57:50.145Z,1023.08
2023-01-28T03:58:50.121Z,1023.10
2023-01-28T03:59:50.097Z,1023.04
2023-01-28T04:00:50.060Z,1023.02
2023-01-28T04:01:50.105Z,1023.06
2023-01-28T04:02:50.101Z,1023.08
2023-01-28T04:03:50.001Z,1023.09
2023-01-28T04:04:49.958Z,1023.13
2023-01-28T04:05:49.915Z,1023.16
2023-01-28T04:06:49.889Z,1023.19
2023-01-28T04:07:49.858Z,1023.19
2023-01-28T04:08:49.836Z,1023.18
2023-01-28T04:09:49.801Z,1023.12
2023-01-28T04:10:49.773Z,1023.15
2023-01-28T04:11:49.747Z,1023.16
2023-01-28T04:12:49.727Z,1023.15
2023-01-28T04:13:49.689Z,1023.17
2023-01-28T04:14:49.666Z,1023.21
2023-01-28T04:15:49.668Z,1023.27
2023-01-28T04:16:49.603Z,1023.30
2023-01-28T04:17:49.598Z,1023.30
2023-01-28T04:18:49.556Z,1023.32
2023-01-28T04:19:49.539Z,1023.32
2023-01-28T04:20:49.495Z,1023.34
2023-01-28T04:21:49.470Z,1023.32
2023-01-28T04:22:49.435Z,1023.28
2023-01-28T04:23:49.409Z,1023.25
2023-01-28T04:24:49.378Z,1023.30
2023-01-28T04:25:49.346Z,1023.23
2023-01-28T04:26:49.326Z,1023.23
2023-01-28T04:27:49.300Z,1023.23
2023-01-28T04:28:49.270Z,1023.23
2023-01-28T04:29:49.240Z,1023.22
2023-01-28T04:30:49.267Z,1023.20
2023-01-28T04:31:49.253Z,1023.23
2023-01-28T04:32:49.151Z,1023.25
2023-01-28T04:33:49.121Z,1023.26
2023-01-28T04:34:49.099Z,1023.29
2023-01-28T04:35:49.085Z,1023.31
2023-01-28T04:36:49.041Z,1023.31
2023-01-28T04:37:49.013Z,1023.36
2023-01-28T04:38:48.978Z,1023.40
2023-01-28T04:39:48.951Z,1023.43
2023-01-28T04:40:48.934Z,1023.38
2023-01-28T04:41:48.902Z,1023.41
2023-01-28T04:42:48.868Z,1023.36
2023-01-28T04:43:48.839Z,1023.35
2023-01-28T04:44:48.809Z,1023.33
2023-01-28T04:45:48.781Z,1023.31
2023-01-28T04:46:48.823Z,1023.27
2023-01-28T04:47:48.722Z,1023.30
2023-01-28T04:48:48.696Z,1023.28
2023-01-28T04:49:48.666Z,1023.31
2023-01-28T04:50:48.640Z,1023.29
2023-01-28T04:51:48.628Z,1023.33
2023-01-28T04:52:48.586Z,1023.31
2023-01-28T04:53:48.552Z,1023.28
2023-01-28T04:54:48.523Z,1023.31
2023-01-28T04:55:48.500Z,1023.29
2023-01-28T04:56:48.468Z,1023.28
2023-01-28T04:57:48.444Z,1023.25
2023-01-28T04:58:48.413Z,1023.24
2023-01-28T04:59:48.382Z,1023.22
2023-01-28T05:00:48.435Z,1023.24
2023-01-28T05:01:48.360Z,1023.22
2023-01-28T05:02:48.320Z,1023.24
2023-01-28T05:03:48.261Z,1023.23
2023-01-28T05:04:48.239Z,1023.26
2023-01-28T05:05:48.207Z,1023.23
2023-01-28T05:06:48.180Z,1023.21
2023-01-28T05:07:48.171Z,1023.21
2023-01-28T05:08:48.128Z,1023.21
2023-01-28T05:09:48.099Z,1023.22
2023-01-28T05:10:48.072Z,1023.23
2023-01-28T05:11:48.039Z,1023.24
2023-01-28T05:12:48.012Z,1023.23
2023-01-28T05:13:47.978Z,1023.25
2023-01-28T05:14:47.968Z,1023.27
2023-01-28T05:15:47.924Z,1023.24
2023-01-28T05:16:47.917Z,1023.30
2023-01-28T05:17:47.873Z,1023.22
2023-01-28T05:18:47.859Z,1023.23
2023-01-28T05:19:47.809Z,1023.17
2023-01-28T05:20:47.782Z,1023.20
2023-01-28T05:21:47.761Z,1023.25
2023-01-28T05:22:47.723Z,1023.31
2023-01-28T05:23:47.721Z,1023.29
2023-01-28T05:24:47.666Z,1023.26
2023-01-28T05:25:47.641Z,1023.27
2023-01-28T05:26:47.610Z,1023.30
2023-01-28T05:27:47.592Z,1023.31
2023-01-28T05:28:47.550Z,1023.33
2023-01-28T05:29:47.524Z,1023.30
2023-01-28T05:30:47.553Z,1023.33
2023-01-28T05:31:47.502Z,1023.30
2023-01-28T05:32:47.486Z,1023.34
2023-01-28T05:33:47.411Z,1023.31
2023-01-28T05:34:47.389Z,1023.44
2023-01-28T05:35:47.355Z,1023.41
2023-01-28T05:36:47.330Z,1023.42
2023-01-28T05:37:47.308Z,1023.48
2023-01-28T05:38:47.266Z,1023.48
2023-01-28T05:39:47.267Z,1023.48
2023-01-28T05:40:47.210Z,1023.51
2023-01-28T05:41:47.184Z,1023.49
2023-01-28T05:42:47.174Z,1023.51
2023-01-28T05:43:47.131Z,1023.53
2023-01-28T05:44:47.095Z,1023.57
2023-01-28T05:45:47.081Z,1023.58
2023-01-28T05:46:47.037Z,1023.56
2023-01-28T05:47:47.011Z,1023.59
2023-01-28T05:48:46.982Z,1023.57
2023-01-28T05:49:46.959Z,1023.51
2023-01-28T05:50:46.925Z,1023.46
2023-01-28T05:51:46.934Z,1023.41
2023-01-28T05:52:46.891Z,1023.41
2023-01-28T05:53:46.842Z,1023.40
2023-01-28T05:54:46.806Z,1023.34
2023-01-28T05:55:46.810Z,1023.40
2023-01-28T05:56:46.749Z,1023.40
2023-01-28T05:57:46.728Z,1023.36
2023-01-28T05:58:46.691Z,1023.35
2023-01-28T05:59:46.673Z,1023.35
2023-01-28T06:00:46.637Z,1023.34
2023-01-28T06:01:46.624Z,1023.32
2023-01-28T06:02:46.697Z,1023.32
2023-01-28T06:03:46.552Z,1023.33
2023-01-28T06:04:46.525Z,1023.33
2023-01-28T06:05:46.497Z,1023.36
2023-01-28T06:06:46.462Z,1023.28
2023-01-28T06:07:46.436Z,1023.34
2023-01-28T06:08:46.405Z,1023.40
2023-01-28T06:09:46.382Z,1023.38
2023-01-28T06:10:46.347Z,1023.38
2023-01-28T06:11:46.342Z,1023.36
2023-01-28T06:12:46.290Z,1023.35
2023-01-28T06:13:46.272Z,1023.37
2023-01-28T06:14:46.239Z,1023.36
2023-01-28T06:15:46.244Z,1023.40
2023-01-28T06:16:46.178Z,1023.44
2023-01-28T06:17:46.162Z,1023.48
2023-01-28T06:18:46.123Z,1023.49
2023-01-28T06:19:46.093Z,1023.49
2023-01-28T06:20:46.064Z,1023.44
2023-01-28T06:21:46.044Z,1023.42
2023-01-28T06:22:46.010Z,1023.40
2023-01-28T06:23:45.986Z,1023.42
2023-01-28T06:24:45.955Z,1023.43
2023-01-28T06:25:45.926Z,1023.45
2023-01-28T06:26:45.890Z,1023.45
2023-01-28T06:27:45.890Z,1023.45
2023-01-28T06:28:45.835Z,1023.40
2023-01-28T06:29:45.811Z,1023.38
2023-01-28T06:30:45.847Z,1023.36
2023-01-28T06:31:45.823Z,1023.36
2023-01-28T06:32:45.720Z,1023.33
2023-01-28T06:33:45.695Z,1023.33
2023-01-28T06:34:45.663Z,1023.34
2023-01-28T06:35:45.643Z,1023.39
2023-01-28T06:36:45.606Z,1023.38
2023-01-28T06:37:45.579Z,1023.38
2023-01-28T06:38:45.554Z,1023.38
2023-01-28T06:39:45.526Z,1023.41
2023-01-28T06:40:45.499Z,1023.38
2023-01-28T06:41:45.471Z,1023.39
2023-01-28T06:42:45.442Z,1023.37
2023-01-28T06:43:45.433Z,1023.36
2023-01-28T06:44:45.375Z,1023.36
2023-01-28T06:45:45.361Z,1023.35
2023-01-28T06:46:45.452Z,1023.33
2023-01-28T06:47:45.298Z,1023.35
2023-01-28T06:48:45.260Z,1023.30
2023-01-28T06:49:45.233Z,1023.31
2023-01-28T06:50:45.205Z,1023.32
2023-01-28T06:51:45.182Z,1023.34
2023-01-28T06:52:45.172Z,1023.38
2023-01-28T06:53:46.111Z,1023.38
2023-01-28T06:54:45.139Z,1023.40
2023-01-28T06:55:45.071Z,1023.38
2023-01-28T06:56:45.061Z,1023.39
2023-01-28T06:57:45.012Z,1023.39
2023-01-28T06:58:44.983Z,1023.42
2023-01-28T06:59:44.979Z,1023.43
2023-01-28T07:00:44.924Z,1023.44
2023-01-28T07:01:44.918Z,1023.45
2023-01-28T07:02:44.915Z,1023.47
2023-01-28T07:03:44.837Z,1023.51
2023-01-28T07:04:44.829Z,1023.55
2023-01-28T07:05:44.782Z,1023.53
2023-01-28T07:06:44.765Z,1023.54
2023-01-28T07:07:44.727Z,1023.55
2023-01-28T07:08:44.698Z,1023.53
2023-01-28T07:09:44.673Z,1023.56
2023-01-28T07:10:44.640Z,1023.57
2023-01-28T07:11:44.615Z,1023.57
2023-01-28T07:12:45.935Z,1023.59
2023-01-28T07:13:44.549Z,1023.61
2023-01-28T07:14:44.525Z,1023.60
2023-01-28T07:15:44.519Z,1023.60
2023-01-28T07:16:44.462Z,1023.61
2023-01-28T07:17:44.459Z,1023.62
2023-01-28T07:18:44.415Z,1023.63
2023-01-28T07:19:44.386Z,1023.57
2023-01-28T07:20:44.352Z,1023.59
2023-01-28T07:21:44.321Z,1023.60
2023-01-28T07:22:44.299Z,1023.60
2023-01-28T07:23:44.267Z,1023.60
2023-01-28T07:24:44.238Z,1023.64
2023-01-28T07:25:44.207Z,1023.64
2023-01-28T07:26:44.175Z,1023.64
2023-01-28T07:27:44.162Z,1023.64
2023-01-28T07:28:44.120Z,1023.61
2023-01-28T07:29:44.093Z,1023.63
2023-01-28T07:30:44.105Z,1023.63
2023-01-28T07:31:44.233Z,1023.62
2023-01-28T07:32:44.004Z,1023.64
2023-01-28T07:33:43.979Z,1023.65
2023-01-28T07:34:43.960Z,1023.61
2023-01-28T07:35:43.930Z,1023.60
2023-01-28T07:36:43.899Z,1023.58
2023-01-28T07:37:43.868Z,1023.65
2023-01-28T07:38:43.839Z,1023.65
2023-01-28T07:39:43.825Z,1023.68
2023-01-28T07:40:43.783Z,1023.72
2023-01-28T07:41:43.753Z,1023.72
2023-01-28T07:42:43.723Z,1023.69
2023-01-28T07:43:43.729Z,1023.72
2023-01-28T07:44:43.667Z,1023.69
2023-01-28T07:45:43.643Z,1023.70
2023-01-28T07:46:43.616Z,1023.64
2023-01-28T08:18:14.948Z,1023.95
2023-01-28T08:22:49.961Z,1024.15
2023-01-28T08:23:48.464Z,1024.17
2023-01-28T08:24:44.340Z,1024.20
2023-01-28T08:39:32.056Z,1024.47
2023-01-28T08:51:52.690Z,1024.54
2023-01-28T09:00:35.767Z,1024.77
2023-01-28T09:01:35.778Z,1024.75
2023-01-28T09:02:35.677Z,1024.78
2023-01-28T09:03:35.670Z,1024.78
2023-01-28T09:04:35.613Z,1024.76
2023-01-28T09:05:35.622Z,1024.79
2023-01-28T09:06:35.547Z,1024.76
2023-01-28T09:07:35.534Z,1024.75
2023-01-28T09:08:35.491Z,1024.72
2023-01-28T09:09:35.463Z,1024.76
2023-01-28T09:10:35.433Z,1024.80
2023-01-28T09:11:35.408Z,1024.74
2023-01-28T09:12:35.384Z,1024.73
2023-01-28T09:13:35.370Z,1024.72
2023-01-28T09:14:35.319Z,1024.75
2023-01-28T09:15:35.312Z,1024.83
2023-01-28T09:16:35.283Z,1024.83
2023-01-28T09:17:35.234Z,1024.86
2023-01-28T09:18:35.203Z,1024.84
2023-01-28T09:19:35.179Z,1024.84
2023-01-28T09:20:35.156Z,1024.86
2023-01-28T09:21:35.126Z,1024.88
2023-01-28T09:22:35.085Z,1024.88
2023-01-28T09:23:35.058Z,1024.89
2023-01-28T09:24:37.263Z,1024.91
2023-01-28T09:25:35.002Z,1024.97
2023-01-28T09:26:34.976Z,1024.97
2023-01-28T09:27:34.943Z,1024.98
2023-01-28T09:28:34.916Z,1025.00
2023-01-28T09:29:34.890Z,1024.96
2023-01-28T09:30:36.916Z,1025.02
2023-01-28T09:31:34.865Z,1025.04
2023-01-28T09:32:34.821Z,1025.02
2023-01-28T09:33:34.780Z,1025.08
2023-01-28T09:34:34.739Z,1025.08
2023-01-28T09:35:34.715Z,1025.08
2023-01-28T09:36:34.697Z,1025.07
2023-01-28T09:37:34.673Z,1025.06
2023-01-28T09:38:34.631Z,1024.99
2023-01-28T09:39:34.601Z,1025.01
2023-01-28T09:40:34.572Z,1024.99
2023-01-28T09:41:34.546Z,1024.93
2023-01-28T09:42:34.510Z,1024.87
2023-01-28T09:43:34.485Z,1024.86
2023-01-28T09:44:34.454Z,1024.89
2023-01-28T09:45:34.435Z,1024.93
2023-01-28T09:46:34.426Z,1024.97
2023-01-28T09:47:34.366Z,1024.98
2023-01-28T09:48:34.358Z,1024.97
2023-01-28T09:49:34.313Z,1024.94
2023-01-28T09:50:34.281Z,1024.90
2023-01-28T09:51:34.262Z,1024.88
2023-01-28T09:52:34.232Z,1024.89
2023-01-28T09:53:34.212Z,1024.98
2023-01-28T09:54:34.171Z,1025.01
2023-01-28T09:55:34.145Z,1024.99
2023-01-28T09:56:34.110Z,1024.94
2023-01-28T09:57:34.082Z,1024.93
2023-01-28T09:58:34.047Z,1024.98
2023-01-28T09:59:34.021Z,1024.93
2023-01-28T10:00:34.012Z,1024.93
2023-01-28T10:01:33.975Z,1024.97
2023-01-28T10:02:33.952Z,1024.96
2023-01-28T10:03:33.955Z,1024.94
2023-01-28T10:04:33.898Z,1024.97
2023-01-28T10:05:33.848Z,1024.96
2023-01-28T10:06:33.823Z,1025.00
2023-01-28T10:07:33.789Z,1025.01
2023-01-28T10:08:33.763Z,1024.98
2023-01-28T10:09:33.731Z,1024.97
2023-01-28T10:10:33.701Z,1024.99
2023-01-28T10:11:33.679Z,1024.98
2023-01-28T10:12:33.659Z,1024.94
2023-01-28T10:13:33.619Z,1024.96
2023-01-28T10:14:33.592Z,1024.94
2023-01-28T10:15:33.561Z,1024.98
2023-01-28T10:16:33.529Z,1025.03
2023-01-28T10:17:33.539Z,1025.03
2023-01-28T10:18:33.478Z,1025.08
2023-01-28T10:19:33.443Z,1025.09
2023-01-28T10:20:33.455Z,1025.12
2023-01-28T10:21:33.399Z,1025.10
2023-01-28T10:22:33.364Z,1025.08
2023-01-28T10:23:33.350Z,1025.07
2023-01-28T10:24:33.383Z,1025.07
2023-01-28T10:25:33.271Z,1025.10
2023-01-28T10:26:33.239Z,1025.09
2023-01-28T10:27:33.216Z,1025.11
2023-01-28T10:28:33.180Z,1025.13
2023-01-28T10:29:33.161Z,1025.17
2023-01-28T10:30:33.123Z,1025.19
2023-01-28T10:31:33.151Z,1025.17
2023-01-28T10:32:33.070Z,1025.10
2023-01-28T10:33:33.047Z,1025.14
2023-01-28T10:34:33.007Z,1025.13
2023-01-28T10:35:32.983Z,1025.16
2023-01-28T10:36:32.974Z,1025.16
2023-01-28T10:37:32.923Z,1025.17
2023-01-28T10:38:32.899Z,1025.18
2023-01-28T10:39:32.864Z,1025.21
2023-01-28T10:40:32.833Z,1025.18
2023-01-28T10:41:32.810Z,1025.16
2023-01-28T10:42:32.774Z,1025.14
2023-01-28T10:43:32.751Z,1025.18
2023-01-28T10:44:32.720Z,1025.16
2023-01-28T10:45:32.741Z,1025.14
2023-01-28T10:46:32.660Z,1025.19
2023-01-28T10:47:32.635Z,1025.19
2023-01-28T10:48:32.600Z,1025.24
2023-01-28T10:49:32.573Z,1025.25
2023-01-28T10:50:32.552Z,1025.26
2023-01-28T10:51:32.526Z,1025.23
2023-01-28T10:52:32.512Z,1025.18
2023-01-28T10:53:32.458Z,1025.15
2023-01-28T10:54:32.427Z,1025.13
2023-01-28T10:55:32.403Z,1025.11
2023-01-28T10:56:32.368Z,1025.12
2023-01-28T10:57:32.365Z,1025.13
2023-01-28T10:58:32.308Z,1025.19
2023-01-28T10:59:32.282Z,1025.27
2023-01-28T11:00:32.257Z,1025.24
2023-01-28T11:01:32.232Z,1025.27
2023-01-28T11:02:32.563Z,1025.24
2023-01-28T11:03:32.181Z,1025.21
2023-01-28T11:04:32.142Z,1025.16
2023-01-28T11:05:32.107Z,1025.11
2023-01-28T11:06:32.074Z,1025.08
2023-01-28T11:07:32.062Z,1025.09
2023-01-28T11:08:32.042Z,1025.12
2023-01-28T11:09:32.003Z,1025.09
2023-01-28T11:10:31.971Z,1025.09
2023-01-28T11:11:31.934Z,1025.02
2023-01-28T11:12:31.899Z,1025.01
2023-01-28T11:13:31.900Z,1024.97
2023-01-28T11:14:31.847Z,1024.98
2023-01-28T11:15:31.819Z,1024.99
2023-01-28T11:16:31.787Z,1025.02
2023-01-28T11:17:31.923Z,1025.05
2023-01-28T11:18:31.756Z,1025.02
2023-01-28T11:19:31.707Z,1024.98
2023-01-28T11:20:31.671Z,1025.02
2023-01-28T11:21:31.649Z,1025.01
2023-01-28T11:22:31.615Z,1025.02
2023-01-28T11:23:31.590Z,1024.99
2023-01-28T11:24:31.646Z,1024.95
2023-01-28T11:25:31.534Z,1024.94
2023-01-28T11:26:31.502Z,1024.92
2023-01-28T11:27:31.502Z,1024.90
2023-01-28T11:28:31.444Z,1024.92
2023-01-28T11:29:31.418Z,1024.88
2023-01-28T11:30:31.382Z,1024.89
2023-01-28T11:31:31.409Z,1024.91
2023-01-28T11:32:31.326Z,1024.87
2023-01-28T11:33:31.308Z,1024.90
2023-01-28T11:34:31.269Z,1024.91
2023-01-28T11:35:31.248Z,1024.87
2023-01-28T11:36:31.212Z,1024.83
2023-01-28T11:37:31.191Z,1024.77
2023-01-28T11:38:31.164Z,1024.73
2023-01-28T11:39:31.129Z,1024.72
2023-01-28T11:40:31.141Z,1024.72
2023-01-28T11:41:31.074Z,1024.72
2023-01-28T11:42:31.038Z,1024.63
2023-01-28T11:43:31.027Z,1024.55
2023-01-28T11:44:30.983Z,1024.51
2023-01-28T11:45:31.019Z,1024.53
2023-01-28T11:46:30.927Z,1024.53
2023-01-28T11:47:30.915Z,1024.52
2023-01-28T11:48:30.870Z,1024.54
2023-01-28T11:49:30.844Z,1024.58
2023-01-28T11:50:30.812Z,1024.58
2023-01-28T11:51:30.790Z,1024.53
2023-01-28T11:52:48.680Z,1024.50
2023-01-28T11:53:30.729Z,1024.43
2023-01-28T11:54:30.700Z,1024.45
2023-01-28T11:55:30.671Z,1024.42
2023-01-28T11:56:30.660Z,1024.41
2023-01-28T11:57:30.615Z,1024.48
2023-01-28T11:58:30.588Z,1024.46
2023-01-28T11:59:30.556Z,1024.54
2023-01-28T12:00:30.522Z,1024.62
2023-01-28T12:01:30.498Z,1024.69
2023-01-28T12:02:30.491Z,1024.69
2023-01-28T12:03:30.441Z,1024.63
2023-01-28T12:04:30.439Z,1024.64
2023-01-28T12:05:30.392Z,1024.52
2023-01-28T12:06:30.374Z,1024.50
2023-01-28T12:07:30.328Z,1024.41
2023-01-28T12:08:30.302Z,1024.34
2023-01-28T12:09:30.274Z,1024.33
2023-01-28T12:10:30.241Z,1024.29
2023-01-28T12:11:30.215Z,1024.21
2023-01-28T12:12:30.206Z,1024.16
2023-01-28T12:13:30.164Z,1024.10
2023-01-28T12:14:30.136Z,1024.10
2023-01-28T12:15:30.135Z,1024.04
2023-01-28T12:16:30.098Z,1023.99
2023-01-28T12:17:30.048Z,1023.92
2023-01-28T12:18:30.046Z,1023.86
2023-01-28T12:19:30.000Z,1023.79
2023-01-28T12:20:29.958Z,1023.67
2023-01-28T12:21:29.941Z,1023.63
2023-01-28T12:22:29.901Z,1023.59
2023-01-28T12:23:29.877Z,1023.61
2023-01-28T12:24:29.928Z,1023.65
2023-01-28T12:25:29.824Z,1023.70
2023-01-28T12:26:29.789Z,1023.69
2023-01-28T12:27:29.770Z,1023.66
2023-01-28T12:28:29.756Z,1023.60
2023-01-28T12:29:29.711Z,1023.56
2023-01-28T12:30:29.679Z,1023.58
2023-01-28T12:31:29.817Z,1023.54
2023-01-28T12:32:29.622Z,1023.53
2023-01-28T12:33:29.594Z,1023.50
2023-01-28T12:34:29.562Z,1023.46
2023-01-28T12:35:29.534Z,1023.46
2023-01-28T12:36:29.506Z,1023.47
2023-01-28T12:37:29.479Z,1023.50
2023-01-28T12:38:29.453Z,1023.52
2023-01-28T12:39:29.431Z,1023.58
2023-01-28T12:40:30.008Z,1023.65
2023-01-28T12:41:29.368Z,1023.66
2023-01-28T12:42:29.348Z,1023.72
2023-01-28T12:43:29.316Z,1023.69
2023-01-28T12:44:29.297Z,1023.68
2023-01-28T12:45:29.274Z,1023.70
2023-01-28T12:46:29.233Z,1023.69
2023-01-28T12:47:29.199Z,1023.72
2023-01-28T12:48:29.172Z,1023.72
2023-01-28T12:49:29.149Z,1023.74
2023-01-28T12:50:29.112Z,1023.71
2023-01-28T12:51:29.092Z,1023.67
2023-01-28T12:52:29.057Z,1023.66
2023-01-28T12:53:29.032Z,1023.66
2023-01-28T12:54:28.998Z,1023.69
2023-01-28T12:55:28.977Z,1023.65
2023-01-28T12:56:28.943Z,1023.64
2023-01-28T12:57:28.919Z,1023.64
2023-01-28T12:58:28.893Z,1023.58
2023-01-28T12:59:28.862Z,1023.55
2023-01-28T13:00:28.853Z,1023.52
2023-01-28T13:01:28.816Z,1023.51
2023-01-28T13:02:28.776Z,1023.51
2023-01-28T13:03:28.748Z,1023.51
2023-01-28T13:04:28.718Z,1023.55
2023-01-28T13:05:28.712Z,1023.63
2023-01-28T13:06:28.665Z,1023.67
2023-01-28T13:07:28.655Z,1023.66
2023-01-28T13:08:28.608Z,1023.66
2023-01-28T13:09:28.582Z,1023.72
2023-01-28T13:10:28.565Z,1023.69
2023-01-28T13:11:28.522Z,1023.74
2023-01-28T13:12:28.495Z,1023.77